Terminal Aerodrome Forecast
Issued by NWS

Home | Current Version | Previous Version | Graphics & Text | Print | Product List | Glossary On
Versions: 1 2 3 4 5 6 7 8 9 10 11 12 13 14 15 16 17 18 19 20
000
FTUS43 KTOP 201722
TAFMHK
TAF
KMHK 201722Z 2018/2118 14013G20KT P6SM BKN250
     FM210000 11008KT P6SM SCT100 OVC200
     FM210800 09007KT 6SM -RA SCT030 OVC090
     FM211100 09008KT 6SM -RA OVC015=

USA.gov is the U.S. government's official web portal to all federal, state and local government web resources and services.